createdAt,value
2023-01-22T00:01:09.305Z,4.80
2023-01-22T00:03:37.445Z,3.13
2023-01-22T00:06:05.693Z,3.40
2023-01-22T00:08:33.625Z,2.58
2023-01-22T00:11:01.228Z,7.47
2023-01-22T00:13:28.989Z,10.98
2023-01-22T00:16:00.230Z,5.80
2023-01-22T00:18:27.374Z,5.47
2023-01-22T00:20:55.528Z,9.30
2023-01-22T00:23:23.353Z,11.18
2023-01-22T00:25:50.894Z,5.18
2023-01-22T00:28:18.010Z,4.93
2023-01-22T00:30:45.067Z,5.65
2023-01-22T00:33:12.191Z,7.88
2023-01-22T00:35:39.979Z,5.68
2023-01-22T00:38:06.990Z,10.32
2023-01-22T00:40:34.043Z,6.30
2023-01-22T00:43:01.623Z,5.05
2023-01-22T00:45:28.642Z,5.57
2023-01-22T00:47:55.623Z,4.65
2023-01-22T00:50:22.937Z,3.50
2023-01-22T00:52:50.098Z,10.10
2023-01-22T00:55:17.258Z,7.70
2023-01-22T00:57:44.356Z,4.05
2023-01-22T01:00:14.855Z,2.20
2023-01-22T01:03:00.916Z,4.55
2023-01-22T01:05:28.196Z,8.40
2023-01-22T01:07:55.336Z,5.28
2023-01-22T01:10:22.500Z,5.20
2023-01-22T01:12:49.406Z,4.93
2023-01-22T01:15:16.419Z,9.43
2023-01-22T01:17:43.308Z,3.47
2023-01-22T01:20:10.968Z,4.28
2023-01-22T01:22:38.031Z,3.47
2023-01-22T01:25:05.994Z,3.67
2023-01-22T01:27:33.183Z,6.90
2023-01-22T01:30:00.191Z,4.07
2023-01-22T01:32:27.127Z,5.07
2023-01-22T01:34:54.052Z,3.78
2023-01-22T01:37:21.127Z,7.50
2023-01-22T01:39:52.481Z,8.43
2023-01-22T01:42:34.268Z,6.03
2023-01-22T01:45:19.993Z,6.18
2023-01-22T01:47:50.444Z,4.68
2023-01-22T01:50:20.828Z,6.38
2023-01-22T01:52:47.934Z,11.48
2023-01-22T01:55:19.567Z,6.75
2023-01-22T01:57:46.801Z,6.78
2023-01-22T02:00:14.619Z,8.70
2023-01-22T02:02:41.889Z,8.27
2023-01-22T02:05:09.803Z,7.10
2023-01-22T02:07:37.164Z,6.05
2023-01-22T02:10:06.430Z,6.05
2023-01-22T02:12:34.451Z,7.75
2023-01-22T02:15:03.956Z,9.55
2023-01-22T02:17:30.985Z,6.15
2023-01-22T02:19:57.970Z,4.35
2023-01-22T02:22:31.097Z,6.75
2023-01-22T02:24:58.740Z,9.05
2023-01-22T02:27:26.085Z,9.38
2023-01-22T02:29:53.071Z,6.47
2023-01-22T02:32:20.181Z,3.10
2023-01-22T02:34:47.199Z,8.68
2023-01-22T02:37:14.559Z,5.80
2023-01-22T02:39:41.504Z,7.13
2023-01-22T02:42:09.416Z,4.10
2023-01-22T02:44:36.454Z,4.50
2023-01-22T02:47:03.659Z,13.48
2023-01-22T02:49:30.667Z,4.38
2023-01-22T02:51:57.717Z,5.32
2023-01-22T02:54:24.747Z,3.95
2023-01-22T02:56:51.764Z,6.13
2023-01-22T02:59:19.087Z,7.13
2023-01-22T03:01:46.136Z,4.47
2023-01-22T03:04:13.266Z,5.30
2023-01-22T03:06:42.839Z,6.55
2023-01-22T03:09:11.582Z,5.43
2023-01-22T03:11:40.068Z,8.02
2023-01-22T03:14:26.220Z,5.53
2023-01-22T03:17:12.117Z,5.68
2023-01-22T03:19:57.834Z,5.63
2023-01-22T03:22:24.838Z,3.65
2023-01-22T03:24:53.070Z,9.05
2023-01-22T03:27:21.705Z,5.25
2023-01-22T03:29:49.467Z,8.75
2023-01-22T03:32:17.463Z,7.65
2023-01-22T03:34:44.497Z,8.35
2023-01-22T03:37:13.021Z,8.38
2023-01-22T03:39:40.628Z,5.90
2023-01-22T03:42:08.043Z,8.95
2023-01-22T03:44:35.258Z,15.38
2023-01-22T03:47:02.272Z,7.38
2023-01-22T03:49:29.416Z,8.82
2023-01-22T03:51:57.161Z,11.63
2023-01-22T03:54:24.092Z,9.48
2023-01-22T03:56:51.416Z,8.65
2023-01-22T03:59:18.452Z,10.77
2023-01-22T04:01:45.482Z,11.60
2023-01-22T04:04:12.481Z,6.22
2023-01-22T04:06:39.513Z,9.80
2023-01-22T04:09:06.551Z,10.60
2023-01-22T04:11:33.503Z,12.30
2023-01-22T04:14:00.527Z,15.75
2023-01-22T04:16:27.564Z,11.25
2023-01-22T04:18:54.535Z,23.48
2023-01-22T04:21:21.564Z,17.90
2023-01-22T04:23:48.597Z,18.20
2023-01-22T04:26:15.608Z,15.15
2023-01-22T04:28:42.639Z,19.00
2023-01-22T04:31:22.800Z,14.40
2023-01-22T04:33:49.882Z,13.50
2023-01-22T04:36:18.154Z,14.25
2023-01-22T04:38:45.262Z,15.30
2023-01-22T04:41:12.250Z,15.32
2023-01-22T04:43:39.187Z,9.88
2023-01-22T04:46:06.315Z,15.35
2023-01-22T04:48:33.273Z,13.00
2023-01-22T04:51:00.379Z,12.32
2023-01-22T04:53:27.572Z,18.92
2023-01-22T04:55:54.570Z,19.67
2023-01-22T04:58:21.665Z,13.63
2023-01-22T05:00:48.856Z,19.45
2023-01-22T05:03:15.733Z,19.08
2023-01-22T05:05:42.714Z,14.70
2023-01-22T05:08:09.690Z,16.90
2023-01-22T05:10:36.691Z,8.52
2023-01-22T05:13:05.294Z,14.27
2023-01-22T05:15:32.474Z,11.32
2023-01-22T05:17:59.835Z,10.18
2023-01-22T05:20:27.534Z,20.70
2023-01-22T05:22:54.530Z,25.60
2023-01-22T05:25:21.687Z,16.08
2023-01-22T05:27:48.637Z,19.65
2023-01-22T05:30:16.087Z,20.42
2023-01-22T05:32:43.145Z,9.77
2023-01-22T05:35:10.282Z,8.90
2023-01-22T05:37:37.278Z,13.63
2023-01-22T05:40:05.480Z,13.20
2023-01-22T05:42:32.615Z,14.77
2023-01-22T05:44:59.554Z,12.18
2023-01-22T05:47:26.498Z,16.33
2023-01-22T05:49:53.990Z,14.68
2023-01-22T05:52:21.120Z,14.30
2023-01-22T05:54:48.162Z,12.43
2023-01-22T05:57:15.267Z,24.67
2023-01-22T05:59:42.748Z,16.15
2023-01-22T06:02:09.745Z,25.77
2023-01-22T06:04:36.734Z,9.95
2023-01-22T06:07:03.818Z,21.83
2023-01-22T06:09:30.809Z,16.05
2023-01-22T06:11:57.812Z,13.70
2023-01-22T06:14:24.859Z,8.55
2023-01-22T06:16:51.794Z,17.25
2023-01-22T06:19:18.758Z,20.02
2023-01-22T06:21:45.758Z,10.27
2023-01-22T06:24:12.745Z,16.48
2023-01-22T06:26:47.090Z,20.25
2023-01-22T06:29:14.124Z,13.13
2023-01-22T06:31:41.107Z,9.40
2023-01-22T06:34:09.425Z,25.13
2023-01-22T06:36:36.556Z,26.85
2023-01-22T06:39:03.672Z,15.50
2023-01-22T06:41:30.684Z,16.63
2023-01-22T06:43:57.687Z,10.95
2023-01-22T06:46:24.753Z,16.05
2023-01-22T06:48:51.789Z,15.15
2023-01-22T06:51:18.790Z,13.95
2023-01-22T06:53:46.329Z,9.63
2023-01-22T06:56:13.322Z,13.35
2023-01-22T06:58:40.329Z,18.42
2023-01-22T07:01:07.804Z,19.55
2023-01-22T07:03:34.823Z,17.98
2023-01-22T07:06:04.424Z,10.55
2023-01-22T07:08:33.086Z,13.13
2023-01-22T07:11:00.376Z,11.27
2023-01-22T07:13:27.467Z,13.75
2023-01-22T07:15:54.567Z,23.30
2023-01-22T07:18:24.090Z,16.85
2023-01-22T07:20:51.610Z,13.95
2023-01-22T07:23:18.853Z,14.30
2023-01-22T07:25:46.441Z,9.50
2023-01-22T07:28:15.211Z,20.60
2023-01-22T07:30:43.539Z,18.33
2023-01-22T07:33:11.879Z,14.63
2023-01-22T07:35:39.821Z,16.17
2023-01-22T07:38:07.982Z,19.25
2023-01-22T07:40:35.358Z,15.38
2023-01-22T07:43:06.715Z,15.65
2023-01-22T07:45:34.769Z,20.02
2023-01-22T07:48:02.643Z,27.38
2023-01-22T07:50:31.325Z,14.73
2023-01-22T07:52:58.360Z,17.30
2023-01-22T07:55:25.367Z,12.55
2023-01-22T07:58:04.784Z,22.23
2023-01-22T08:00:34.814Z,14.15
2023-01-22T08:03:04.503Z,15.32
2023-01-22T08:05:31.616Z,18.42
2023-01-22T08:07:59.104Z,14.45
2023-01-22T08:10:26.235Z,12.20
2023-01-22T08:12:53.151Z,12.77
2023-01-22T08:15:20.479Z,19.92
2023-01-22T08:17:50.304Z,20.45
2023-01-22T08:20:17.690Z,9.98
2023-01-22T08:22:45.504Z,17.83
2023-01-22T08:25:12.745Z,17.25
2023-01-22T08:27:39.750Z,22.08
2023-01-22T08:30:08.013Z,19.10
2023-01-22T08:32:35.131Z,11.52
2023-01-22T08:35:02.163Z,13.13
2023-01-22T08:37:29.142Z,21.88
2023-01-22T08:39:56.310Z,15.40
2023-01-22T08:42:23.683Z,12.02
2023-01-22T08:44:50.693Z,13.70
2023-01-22T08:47:17.741Z,14.07
2023-01-22T08:49:44.763Z,19.05
2023-01-22T08:52:11.709Z,10.95
2023-01-22T08:54:38.597Z,14.75
2023-01-22T08:57:05.678Z,13.15
2023-01-22T08:59:32.717Z,11.15
2023-01-22T09:02:00.416Z,13.73
2023-01-22T09:04:28.412Z,15.90
2023-01-22T09:06:55.743Z,13.85
2023-01-22T09:09:23.041Z,19.63
2023-01-22T09:11:50.267Z,15.23
2023-01-22T09:14:17.687Z,24.00
2023-01-22T09:16:45.069Z,13.10
2023-01-22T09:19:12.769Z,15.40
2023-01-22T09:21:39.958Z,11.90
2023-01-22T09:24:14.562Z,16.20
2023-01-22T09:26:42.694Z,15.50
2023-01-22T09:29:09.976Z,12.90
2023-01-22T09:31:37.908Z,10.68
2023-01-22T09:34:05.251Z,19.83
2023-01-22T09:36:32.734Z,8.75
2023-01-22T09:38:59.681Z,9.23
2023-01-22T09:41:37.152Z,9.80
2023-01-22T09:44:17.621Z,14.98
2023-01-22T09:47:16.243Z,13.52
2023-01-22T09:49:52.450Z,11.23
2023-01-22T09:54:47.303Z,14.13
2023-01-22T09:57:30.788Z,10.07
2023-01-22T09:59:58.631Z,12.75
2023-01-22T10:02:31.539Z,13.35
2023-01-22T10:05:17.649Z,15.45
2023-01-22T10:07:51.524Z,11.43
2023-01-22T10:10:24.110Z,12.40
2023-01-22T10:13:23.835Z,10.63
2023-01-22T10:15:53.581Z,15.75
2023-01-22T10:18:52.217Z,8.15
2023-01-22T10:21:29.360Z,6.90
2023-01-22T10:23:58.274Z,13.13
2023-01-22T10:26:38.879Z,6.75
2023-01-22T10:29:14.042Z,12.00
2023-01-22T10:31:47.817Z,10.98
2023-01-22T10:34:17.507Z,19.45
2023-01-22T10:36:53.058Z,16.75
2023-01-22T10:39:23.690Z,13.02
2023-01-22T10:41:58.343Z,15.00
2023-01-22T10:44:27.116Z,11.70
2023-01-22T10:46:55.993Z,17.67
2023-01-22T10:49:27.551Z,14.77
2023-01-22T10:51:56.946Z,15.25
2023-01-22T10:54:34.362Z,18.90
2023-01-22T10:57:33.661Z,14.18
2023-01-22T11:00:16.286Z,7.25
2023-01-22T11:02:49.208Z,15.20
2023-01-22T11:05:23.799Z,7.18
2023-01-22T11:08:06.497Z,11.80
2023-01-22T11:10:56.276Z,16.88
2023-01-22T11:13:47.573Z,15.02
2023-01-22T11:16:18.208Z,14.80
2023-01-22T11:19:36.064Z,12.15
2023-01-22T11:22:13.398Z,17.67
2023-01-22T11:27:35.486Z,23.45
2023-01-22T11:30:24.078Z,14.52
2023-01-22T11:33:10.030Z,12.80
2023-01-22T11:35:47.141Z,13.80
2023-01-22T11:38:13.975Z,9.27
2023-01-22T11:41:18.793Z,16.35
2023-01-22T11:44:03.232Z,13.75
2023-01-22T11:47:04.257Z,18.77
2023-01-22T11:49:40.150Z,13.32
2023-01-22T11:52:12.890Z,17.40
2023-01-22T11:54:52.360Z,11.63
2023-01-22T11:57:41.212Z,13.75
2023-01-22T12:00:23.258Z,13.02
2023-01-22T12:02:50.276Z,12.50
2023-01-22T12:05:36.025Z,12.25
2023-01-22T12:08:17.523Z,11.35
2023-01-22T12:10:56.598Z,9.45
2023-01-22T12:13:33.270Z,11.05
2023-01-22T12:16:23.439Z,15.40
2023-01-22T12:19:24.804Z,14.95
2023-01-22T12:21:57.890Z,11.25
2023-01-22T12:24:37.824Z,18.95
2023-01-22T12:27:14.757Z,6.53
2023-01-22T12:29:54.311Z,15.43
2023-01-22T12:32:23.196Z,11.07
2023-01-22T12:35:00.447Z,13.48
2023-01-22T12:37:38.960Z,13.88
2023-01-22T12:40:25.130Z,9.38
2023-01-22T12:42:58.005Z,8.15
2023-01-22T12:45:51.170Z,19.00
2023-01-22T12:48:30.446Z,10.93
2023-01-22T12:50:58.678Z,15.70
2023-01-22T12:53:31.258Z,8.60
2023-01-22T12:56:10.773Z,7.07
2023-01-22T12:58:41.270Z,13.23
2023-01-22T13:01:14.168Z,7.38
2023-01-22T13:03:42.350Z,10.00
2023-01-22T13:06:33.076Z,9.82
2023-01-22T13:09:00.036Z,15.55
2023-01-22T13:11:36.355Z,11.70
2023-01-22T13:14:20.753Z,14.52
2023-01-22T13:17:00.221Z,19.95
2023-01-22T13:19:30.076Z,13.45
2023-01-22T13:22:01.220Z,6.22
2023-01-22T13:24:28.200Z,5.00
2023-01-22T13:27:01.910Z,16.52
2023-01-22T13:29:37.849Z,4.88
2023-01-22T13:32:20.163Z,17.55
2023-01-22T13:34:47.225Z,6.28
2023-01-22T13:37:25.671Z,8.65
2023-01-22T13:39:53.296Z,15.95
2023-01-22T13:42:21.402Z,11.55
2023-01-22T13:44:52.297Z,8.35
2023-01-22T13:47:33.986Z,7.32
2023-01-22T13:50:02.109Z,12.40
2023-01-22T13:52:29.478Z,9.90
2023-01-22T13:55:20.508Z,17.92
2023-01-22T13:57:49.847Z,7.70
2023-01-22T14:00:33.403Z,14.93
2023-01-22T14:03:00.625Z,9.60
2023-01-22T14:05:33.961Z,7.55
2023-01-22T14:08:09.941Z,5.22
2023-01-22T14:10:37.628Z,11.20
2023-01-22T14:13:07.196Z,5.95
2023-01-22T14:15:34.521Z,4.22
2023-01-22T14:18:11.841Z,5.03
2023-01-22T14:20:40.762Z,13.13
2023-01-22T14:23:08.107Z,9.38
2023-01-22T14:25:39.754Z,5.35
2023-01-22T14:28:06.963Z,8.55
2023-01-22T14:30:34.445Z,7.32
2023-01-22T14:33:01.759Z,7.45
2023-01-22T14:35:28.904Z,4.00
2023-01-22T14:37:56.703Z,5.43
2023-01-22T14:40:25.833Z,12.93
2023-01-22T14:42:53.273Z,8.90
2023-01-22T14:45:20.871Z,7.82
2023-01-22T14:47:52.399Z,9.48
2023-01-22T14:50:21.225Z,15.18
2023-01-22T14:52:49.097Z,10.05
2023-01-22T14:55:16.170Z,10.02
2023-01-22T14:57:43.323Z,7.93
2023-01-22T15:00:13.382Z,5.97
2023-01-22T15:02:41.725Z,5.50
2023-01-22T15:05:10.090Z,3.20
2023-01-22T15:07:37.915Z,5.80
2023-01-22T15:10:07.041Z,5.45
2023-01-22T15:12:34.679Z,4.25
2023-01-22T15:15:01.590Z,5.13
2023-01-22T15:17:28.501Z,3.05
2023-01-22T15:19:56.919Z,3.17
2023-01-22T15:22:23.864Z,6.43
2023-01-22T15:24:50.793Z,3.30
2023-01-22T15:27:18.969Z,5.20
2023-01-22T15:29:46.861Z,3.55
2023-01-22T15:32:14.376Z,3.20
2023-01-22T15:34:41.607Z,2.72
2023-01-22T15:37:09.047Z,4.85
2023-01-22T15:39:35.964Z,4.18
2023-01-22T15:42:02.888Z,5.55
2023-01-22T15:44:30.605Z,5.93
2023-01-22T15:46:59.059Z,4.82
2023-01-22T15:49:26.124Z,2.50
2023-01-22T15:51:53.596Z,2.67
2023-01-22T15:54:20.730Z,6.45
2023-01-22T15:56:48.097Z,2.65
2023-01-22T15:59:15.304Z,4.95
2023-01-22T16:01:42.413Z,4.45
2023-01-22T16:04:10.027Z,3.00
2023-01-22T16:06:37.499Z,2.80
2023-01-22T16:09:06.295Z,6.43
2023-01-22T16:11:33.791Z,5.88
2023-01-22T16:14:01.212Z,3.25
2023-01-22T16:16:36.581Z,4.28
2023-01-22T16:19:05.853Z,2.13
2023-01-22T16:21:33.188Z,2.10
2023-01-22T16:24:05.613Z,1.48
2023-01-22T16:26:35.112Z,3.38
2023-01-22T16:29:04.754Z,4.40
2023-01-22T16:31:34.596Z,4.93
2023-01-22T16:34:09.912Z,9.45
2023-01-22T16:36:37.393Z,10.60
2023-01-22T16:39:05.574Z,6.32
2023-01-22T16:41:37.114Z,2.33
2023-01-22T16:44:18.440Z,5.05
2023-01-22T16:46:48.051Z,6.45
2023-01-22T16:49:28.474Z,1.85
2023-01-22T16:52:21.525Z,3.15
2023-01-22T16:54:50.087Z,1.75
2023-01-22T16:57:20.349Z,2.28
2023-01-22T16:59:47.424Z,2.47
2023-01-22T17:02:16.103Z,2.78
2023-01-22T17:04:43.466Z,2.42
2023-01-22T17:07:27.379Z,3.00
2023-01-22T17:09:58.973Z,2.67
2023-01-22T17:12:26.619Z,7.50
2023-01-22T17:14:53.682Z,2.33
2023-01-22T17:17:20.856Z,7.65
2023-01-22T17:19:48.216Z,5.80
2023-01-22T17:22:15.347Z,7.20
2023-01-22T17:24:42.450Z,3.63
2023-01-22T17:27:11.480Z,5.05
2023-01-22T17:29:38.603Z,3.55
2023-01-22T17:32:06.090Z,3.03
2023-01-22T17:34:33.367Z,5.63
2023-01-22T17:37:00.495Z,24.77
2023-01-22T17:39:27.880Z,9.30
2023-01-22T17:41:54.982Z,12.48
2023-01-22T17:44:22.045Z,5.78
2023-01-22T17:46:49.428Z,4.95
2023-01-22T17:49:16.812Z,5.13
2023-01-22T17:51:43.954Z,5.45
2023-01-22T17:54:11.098Z,2.35
2023-01-22T17:56:45.597Z,2.83
2023-01-22T17:59:12.786Z,3.92
2023-01-22T18:01:40.811Z,2.83
2023-01-22T18:04:09.841Z,3.72
2023-01-22T18:06:38.907Z,2.67
2023-01-22T18:09:07.711Z,3.08
2023-01-22T18:11:36.511Z,4.40
2023-01-22T18:14:10.058Z,3.58
2023-01-22T18:16:41.011Z,8.73
2023-01-22T18:19:08.664Z,5.35
2023-01-22T18:21:37.168Z,5.93
2023-01-22T18:24:06.528Z,3.75
2023-01-22T18:26:34.567Z,3.70
2023-01-22T18:29:01.778Z,2.45
2023-01-22T18:31:30.090Z,4.05
2023-01-22T18:34:01.455Z,2.33
2023-01-22T18:36:34.202Z,2.20
2023-01-22T18:39:07.317Z,4.68
2023-01-22T18:41:34.484Z,2.33
2023-01-22T18:44:02.594Z,4.43
2023-01-22T18:46:33.767Z,1.98
2023-01-22T18:49:04.719Z,3.22
2023-01-22T18:51:33.361Z,3.30
2023-01-22T18:54:04.973Z,2.10
2023-01-22T18:56:32.708Z,3.60
2023-01-22T18:59:00.266Z,2.20
2023-01-22T19:01:33.580Z,1.75
2023-01-22T19:04:03.321Z,4.25
2023-01-22T19:06:37.122Z,3.78
2023-01-22T19:09:12.321Z,2.88
2023-01-22T19:11:42.325Z,3.67
2023-01-22T19:14:12.075Z,6.05
2023-01-22T19:16:39.463Z,6.53
2023-01-22T19:19:11.539Z,6.13
2023-01-22T19:21:40.498Z,3.00
2023-01-22T19:24:09.029Z,4.40
2023-01-22T19:26:37.726Z,5.15
2023-01-22T19:29:11.520Z,5.75
2023-01-22T19:31:46.043Z,5.88
2023-01-22T19:34:16.620Z,5.05
2023-01-22T19:36:43.547Z,4.70
2023-01-22T19:39:13.063Z,4.93
2023-01-22T19:41:41.273Z,3.97
2023-01-22T19:44:09.382Z,5.10
2023-01-22T19:46:38.139Z,3.00
2023-01-22T19:49:06.348Z,4.00
2023-01-22T19:51:34.003Z,4.82
2023-01-22T19:54:02.322Z,3.63
2023-01-22T19:56:33.131Z,2.85
2023-01-22T19:59:03.413Z,4.50
2023-01-22T20:01:30.342Z,3.28
2023-01-22T20:03:57.561Z,7.78
2023-01-22T20:06:25.512Z,4.28
2023-01-22T20:08:56.844Z,3.60
2023-01-22T20:11:24.748Z,7.88
2023-01-22T20:13:52.962Z,4.93
2023-01-22T20:16:22.858Z,4.57
2023-01-22T20:18:50.902Z,8.20
2023-01-22T20:21:19.206Z,3.63
2023-01-22T20:23:47.762Z,3.10
2023-01-22T20:26:17.105Z,3.58
2023-01-22T20:28:44.627Z,2.95
2023-01-22T20:31:14.734Z,4.15
2023-01-22T20:33:42.440Z,5.55
2023-01-22T20:36:15.130Z,3.60
2023-01-22T20:38:46.145Z,8.70
2023-01-22T20:41:14.573Z,8.68
2023-01-22T20:43:43.803Z,13.77
2023-01-22T20:46:23.434Z,5.95
2023-01-22T20:48:50.900Z,5.63
2023-01-22T20:51:23.588Z,10.50
2023-01-22T20:53:53.097Z,13.25
2023-01-22T20:56:23.359Z,13.77
2023-01-22T20:58:57.411Z,9.18
2023-01-22T21:01:25.141Z,6.32
2023-01-22T21:03:53.033Z,10.05
2023-01-22T21:06:20.958Z,10.05
2023-01-22T21:08:51.435Z,8.80
2023-01-22T21:11:20.844Z,9.50
2023-01-22T21:13:50.130Z,9.30
2023-01-22T21:16:23.342Z,8.65
2023-01-22T21:18:50.441Z,11.55
2023-01-22T21:21:19.336Z,7.00
2023-01-22T21:23:51.542Z,6.25
2023-01-22T21:26:23.438Z,9.45
2023-01-22T21:29:02.558Z,6.72
2023-01-22T21:31:30.580Z,5.45
2023-01-22T21:34:04.897Z,11.82
2023-01-22T21:36:41.161Z,11.70
2023-01-22T21:41:38.513Z,7.82
2023-01-22T21:44:24.883Z,7.63
2023-01-22T21:46:52.344Z,9.25
2023-01-22T21:49:23.555Z,12.55
2023-01-22T21:51:50.631Z,13.65
2023-01-22T21:54:20.644Z,7.53
2023-01-22T21:56:51.484Z,11.40
2023-01-22T21:59:19.292Z,6.72
2023-01-22T22:01:46.853Z,10.48
2023-01-22T22:04:15.234Z,9.70
2023-01-22T22:06:42.743Z,8.65
2023-01-22T22:09:14.018Z,7.78
2023-01-22T22:11:41.443Z,7.20
2023-01-22T22:14:10.231Z,6.43
2023-01-22T22:16:37.523Z,6.35
2023-01-22T22:19:04.524Z,11.43
2023-01-22T22:21:31.481Z,6.90
2023-01-22T22:23:58.607Z,8.18
2023-01-22T22:26:26.375Z,10.77
2023-01-22T22:28:54.265Z,12.10
2023-01-22T22:31:21.373Z,8.93
2023-01-22T22:33:51.111Z,12.70
2023-01-22T22:36:20.564Z,7.90
2023-01-22T22:38:47.959Z,12.38
2023-01-22T22:41:26.705Z,9.00
2023-01-22T22:43:55.353Z,10.85
2023-01-22T22:46:27.652Z,10.07
2023-01-22T22:48:56.405Z,8.00
2023-01-22T22:51:35.925Z,5.80
2023-01-22T22:54:12.022Z,6.88
2023-01-22T22:56:39.341Z,10.40
2023-01-22T22:59:07.179Z,9.35
2023-01-22T23:01:36.792Z,14.30
2023-01-22T23:04:05.305Z,9.63
2023-01-22T23:06:34.151Z,7.20
2023-01-22T23:09:01.484Z,10.93
2023-01-22T23:11:34.348Z,6.90
2023-01-22T23:14:02.782Z,12.13
2023-01-22T23:16:35.523Z,14.02
2023-01-22T23:19:06.513Z,17.98
2023-01-22T23:21:40.826Z,15.18
2023-01-22T23:24:12.938Z,15.75
2023-01-22T23:26:41.684Z,13.77
2023-01-22T23:29:10.930Z,9.02
2023-01-22T23:31:39.481Z,9.80
2023-01-22T23:34:09.283Z,9.23
2023-01-22T23:36:36.395Z,6.53
2023-01-22T23:39:04.223Z,7.32
2023-01-22T23:41:31.440Z,11.00
2023-01-22T23:43:58.525Z,10.13
2023-01-22T23:46:28.141Z,6.85
2023-01-22T23:48:56.518Z,6.78
2023-01-22T23:51:23.827Z,13.63
2023-01-22T23:53:52.605Z,8.40
2023-01-22T23:56:24.170Z,11.57
2023-01-22T23:58:54.940Z,8.98
